createdAt,value
2023-01-26T00:00:18.070Z,102042.11
2023-01-26T00:02:46.392Z,102039.75
2023-01-26T00:05:14.739Z,102039.39
2023-01-26T00:07:45.701Z,102037.92
2023-01-26T00:10:15.414Z,102038.54
2023-01-26T00:12:44.157Z,102032.58
2023-01-26T00:15:12.772Z,102034.23
2023-01-26T00:17:41.743Z,102029.77
2023-01-26T00:20:11.346Z,102029.30
2023-01-26T00:22:40.171Z,102030.84
2023-01-26T00:25:11.545Z,102026.81
2023-01-26T00:27:39.916Z,102027.14
2023-01-26T00:30:09.527Z,102032.91
2023-01-26T00:32:39.237Z,102030.75
2023-01-26T00:35:08.279Z,102029.13
2023-01-26T00:37:38.084Z,102031.65
2023-01-26T00:40:10.750Z,102030.84
2023-01-26T00:42:40.100Z,102031.52
2023-01-26T00:45:09.320Z,102028.90
2023-01-26T00:47:37.768Z,102031.81
2023-01-26T00:50:06.850Z,102032.92
2023-01-26T00:52:35.356Z,102033.37
2023-01-26T00:55:03.920Z,102035.96
2023-01-26T00:57:32.649Z,102028.59
2023-01-26T01:00:01.075Z,102031.69
2023-01-26T01:02:29.866Z,102027.99
2023-01-26T01:04:58.497Z,102026.63
2023-01-26T01:07:29.280Z,102025.14
2023-01-26T01:09:58.269Z,102020.70
2023-01-26T01:12:28.077Z,102023.98
2023-01-26T01:14:57.602Z,102021.48
2023-01-26T01:17:26.223Z,102025.05
2023-01-26T01:19:54.559Z,102025.26
2023-01-26T01:22:23.478Z,102026.86
2023-01-26T01:24:51.895Z,102023.83
2023-01-26T01:27:20.292Z,102021.31
2023-01-26T01:29:50.926Z,102015.08
2023-01-26T01:32:20.234Z,102016.31
2023-01-26T01:34:49.049Z,102017.54
2023-01-26T01:37:17.783Z,102014.98
2023-01-26T01:39:46.484Z,102012.14
2023-01-26T01:42:15.218Z,102011.94
2023-01-26T01:44:43.941Z,102011.18
2023-01-26T01:47:17.282Z,102010.00
2023-01-26T01:49:47.994Z,102012.56
2023-01-26T01:52:27.203Z,102006.48
2023-01-26T01:55:15.935Z,102005.49
2023-01-26T01:57:51.892Z,102000.40
2023-01-26T02:00:22.718Z,102003.40
2023-01-26T02:03:13.841Z,102002.25
2023-01-26T02:05:56.252Z,102002.84
2023-01-26T02:08:31.637Z,102001.06
2023-01-26T02:11:01.840Z,102004.98
2023-01-26T02:13:31.990Z,102002.33
2023-01-26T02:16:04.211Z,102001.70
2023-01-26T02:18:32.992Z,102001.39
2023-01-26T02:21:09.369Z,101999.77
2023-01-26T02:24:02.891Z,101999.59
2023-01-26T02:26:33.675Z,101994.73
2023-01-26T02:29:05.062Z,101994.58
2023-01-26T02:31:34.754Z,101994.90
2023-01-26T02:34:03.073Z,101995.31
2023-01-26T02:36:32.499Z,101996.45
2023-01-26T02:39:19.827Z,101997.77
2023-01-26T02:42:08.523Z,101998.91
2023-01-26T02:44:38.975Z,101998.58
2023-01-26T02:47:17.756Z,101996.30
2023-01-26T02:49:47.234Z,101991.55
2023-01-26T02:52:20.496Z,101989.27
2023-01-26T02:55:14.273Z,101991.08
2023-01-26T02:57:43.016Z,101993.47
2023-01-26T03:00:17.250Z,101993.68
2023-01-26T03:02:46.307Z,101991.98
2023-01-26T03:05:14.829Z,101994.61
2023-01-26T03:07:44.217Z,101992.70
2023-01-26T03:10:13.512Z,101991.58
2023-01-26T03:12:42.880Z,101991.50
2023-01-26T03:15:31.690Z,101987.02
2023-01-26T03:18:27.306Z,101984.59
2023-01-26T03:21:14.442Z,101981.11
2023-01-26T03:24:02.419Z,101981.39
2023-01-26T03:26:50.206Z,101978.20
2023-01-26T03:29:19.855Z,101976.61
2023-01-26T03:31:48.578Z,101977.44
2023-01-26T03:34:17.078Z,101972.89
2023-01-26T03:36:47.452Z,101973.53
2023-01-26T03:39:35.051Z,101973.02
2023-01-26T03:42:23.967Z,101972.77
2023-01-26T03:45:11.035Z,101971.09
2023-01-26T03:47:59.528Z,101969.50
2023-01-26T03:50:47.184Z,101973.83
2023-01-26T03:53:37.269Z,101971.99
2023-01-26T03:56:18.569Z,101971.55
2023-01-26T03:58:52.692Z,101970.14
2023-01-26T04:01:28.337Z,101971.52
2023-01-26T04:04:19.387Z,101970.05
2023-01-26T04:07:08.354Z,101971.86
2023-01-26T04:09:39.863Z,101970.13
2023-01-26T04:12:10.529Z,101967.97
2023-01-26T04:15:05.623Z,101970.55
2023-01-26T04:17:53.089Z,101968.88
2023-01-26T04:20:40.301Z,101973.69
2023-01-26T04:23:18.100Z,101975.27
2023-01-26T04:25:48.006Z,101977.42
2023-01-26T04:28:16.590Z,101979.73
2023-01-26T04:30:45.839Z,101984.73
2023-01-26T04:33:14.605Z,101978.76
2023-01-26T04:35:42.972Z,101980.95
2023-01-26T04:38:11.676Z,101982.83
2023-01-26T04:40:43.043Z,101981.20
2023-01-26T04:43:12.642Z,101984.36
2023-01-26T04:45:41.163Z,101978.91
2023-01-26T04:48:09.592Z,101976.41
2023-01-26T04:50:38.368Z,101975.08
2023-01-26T04:53:06.831Z,101974.20
2023-01-26T04:55:35.637Z,101975.48
2023-01-26T04:58:04.092Z,101982.34
2023-01-26T05:00:33.451Z,101984.61
2023-01-26T05:03:05.484Z,101984.45
2023-01-26T05:05:38.487Z,101987.80
2023-01-26T05:08:07.189Z,101995.10
2023-01-26T05:10:36.522Z,101995.15
2023-01-26T05:13:28.205Z,101997.27
2023-01-26T05:16:17.528Z,101999.73
2023-01-26T05:19:09.095Z,101994.89
2023-01-26T05:21:52.291Z,101991.88
2023-01-26T05:24:21.018Z,101993.88
2023-01-26T05:27:21.683Z,101992.55
2023-01-26T05:30:00.612Z,101991.83
2023-01-26T05:32:30.915Z,101992.77
2023-01-26T05:34:59.521Z,101991.52
2023-01-26T05:37:28.363Z,101986.20
2023-01-26T05:39:58.205Z,101989.08
2023-01-26T05:42:27.938Z,101989.79
2023-01-26T05:45:32.005Z,101990.89
2023-01-26T05:48:02.793Z,101995.57
2023-01-26T05:50:31.527Z,101994.33
2023-01-26T05:53:15.487Z,101994.20
2023-01-26T05:55:44.083Z,101998.67
2023-01-26T05:58:13.031Z,102001.23
2023-01-26T06:00:41.944Z,102001.44
2023-01-26T06:03:13.987Z,101999.09
2023-01-26T06:05:43.050Z,102004.13
2023-01-26T06:08:23.808Z,102007.16
2023-01-26T06:11:21.859Z,102010.64
2023-01-26T06:14:10.659Z,102008.27
2023-01-26T06:16:39.819Z,102011.60
2023-01-26T06:19:12.207Z,102012.91
2023-01-26T06:21:41.862Z,102010.86
2023-01-26T06:24:10.447Z,102009.80
2023-01-26T06:26:39.462Z,102016.69
2023-01-26T06:29:09.239Z,102019.00
2023-01-26T06:31:38.048Z,102017.48
2023-01-26T06:34:08.144Z,102018.33
2023-01-26T06:36:41.686Z,102022.73
2023-01-26T06:39:14.481Z,102021.73
2023-01-26T06:41:44.267Z,102024.71
2023-01-26T06:44:14.264Z,102017.00
2023-01-26T06:46:43.013Z,102018.23
2023-01-26T06:49:11.563Z,102018.66
2023-01-26T06:52:12.832Z,102017.42
2023-01-26T06:54:51.210Z,102014.46
2023-01-26T06:57:42.871Z,102018.67
2023-01-26T07:00:26.031Z,102014.44
2023-01-26T07:02:57.027Z,102014.52
2023-01-26T07:05:25.727Z,102016.65
2023-01-26T07:07:57.167Z,102015.54
2023-01-26T07:10:25.531Z,102017.23
2023-01-26T07:12:53.951Z,102018.02
2023-01-26T07:15:22.672Z,102021.39
2023-01-26T07:17:51.690Z,102024.23
2023-01-26T07:20:20.170Z,102023.84
2023-01-26T07:22:48.726Z,102021.67
2023-01-26T07:25:17.866Z,102023.44
2023-01-26T07:27:46.779Z,102027.25
2023-01-26T07:30:16.123Z,102031.98
2023-01-26T07:32:45.717Z,102032.29
2023-01-26T07:35:14.574Z,102029.33
2023-01-26T07:37:42.963Z,102024.70
2023-01-26T07:40:12.628Z,102018.60
2023-01-26T07:42:42.887Z,102019.76
2023-01-26T07:45:21.768Z,102026.49
2023-01-26T07:47:50.823Z,102027.02
2023-01-26T07:50:21.274Z,102022.69
2023-01-26T07:52:49.829Z,102017.91
2023-01-26T07:55:21.621Z,102014.35
2023-01-26T07:57:50.458Z,102017.27
2023-01-26T08:00:19.867Z,102015.75
2023-01-26T08:02:51.825Z,102015.32
2023-01-26T08:05:20.814Z,102014.56
2023-01-26T08:07:49.390Z,102010.55
2023-01-26T08:10:18.470Z,102003.96
2023-01-26T08:12:46.911Z,102001.85
2023-01-26T08:15:15.581Z,101996.25
2023-01-26T08:17:44.345Z,101995.38
2023-01-26T08:20:14.399Z,101991.58
2023-01-26T08:22:43.020Z,101990.27
2023-01-26T08:25:11.508Z,101988.71
2023-01-26T08:27:39.912Z,101982.95
2023-01-26T08:30:09.881Z,101981.15
2023-01-26T08:32:38.964Z,101980.56
2023-01-26T08:35:07.803Z,101984.67
2023-01-26T08:37:36.444Z,101988.40
2023-01-26T08:40:05.464Z,101988.98
2023-01-26T08:42:35.202Z,101989.98
2023-01-26T08:45:04.003Z,101987.48
2023-01-26T08:47:34.293Z,101987.55
2023-01-26T08:50:02.828Z,101982.94
2023-01-26T08:52:33.478Z,101979.23
2023-01-26T08:55:03.494Z,101974.84
2023-01-26T08:57:32.897Z,101968.11
2023-01-26T09:00:01.409Z,101966.67
2023-01-26T09:02:30.427Z,101966.64
2023-01-26T09:04:59.071Z,101963.67
2023-01-26T09:07:27.769Z,101955.48
2023-01-26T09:09:56.622Z,101948.61
2023-01-26T09:12:25.321Z,101942.67
2023-01-26T09:14:53.742Z,101944.23
2023-01-26T09:17:34.918Z,101940.02
2023-01-26T09:20:09.147Z,101937.58
2023-01-26T09:22:38.010Z,101935.25
2023-01-26T09:25:07.071Z,101930.38
2023-01-26T09:27:35.706Z,101931.38
2023-01-26T09:30:05.424Z,101932.17
2023-01-26T09:32:34.124Z,101933.48
2023-01-26T09:35:02.896Z,101927.09
2023-01-26T09:37:31.683Z,101924.47
2023-01-26T09:40:00.071Z,101916.60
2023-01-26T09:42:55.177Z,101914.70
2023-01-26T09:45:34.021Z,101919.34
2023-01-26T09:48:14.692Z,101912.74
2023-01-26T09:50:57.125Z,101910.41
2023-01-26T09:53:31.315Z,101905.95
2023-01-26T09:56:00.419Z,101904.88
2023-01-26T09:58:34.539Z,101901.61
2023-01-26T10:01:03.201Z,101898.30
2023-01-26T10:03:41.888Z,101898.70
2023-01-26T10:06:21.978Z,101894.21
2023-01-26T10:09:26.914Z,101895.41
2023-01-26T10:11:58.529Z,101894.48
2023-01-26T10:14:37.606Z,101887.23
2023-01-26T10:17:06.619Z,101877.25
2023-01-26T10:19:39.793Z,101870.64
2023-01-26T10:22:37.567Z,101865.83
2023-01-26T10:25:46.526Z,101862.02
2023-01-26T10:28:16.636Z,101856.01
2023-01-26T10:30:46.919Z,101853.83
2023-01-26T10:33:31.190Z,101853.89
2023-01-26T10:36:01.292Z,101850.84
2023-01-26T10:38:33.497Z,101846.45
2023-01-26T10:41:03.734Z,101847.55
2023-01-26T10:43:36.548Z,101852.90
2023-01-26T10:46:05.645Z,101850.91
2023-01-26T10:48:34.693Z,101850.15
2023-01-26T10:51:27.850Z,101846.52
2023-01-26T10:54:21.617Z,101844.67
2023-01-26T10:56:55.624Z,101842.23
2023-01-26T10:59:27.454Z,101844.21
2023-01-26T11:02:14.718Z,101842.41
2023-01-26T11:05:04.205Z,101839.60
2023-01-26T11:07:38.904Z,101839.41
2023-01-26T11:10:39.924Z,101831.52
2023-01-26T11:13:20.534Z,101838.09
2023-01-26T11:15:51.290Z,101837.03
2023-01-26T11:18:24.167Z,101833.45
2023-01-26T11:21:17.208Z,101832.38
2023-01-26T11:23:51.699Z,101834.48
2023-01-26T11:26:27.024Z,101827.15
2023-01-26T11:29:10.539Z,101826.45
2023-01-26T11:31:46.269Z,101825.88
2023-01-26T11:34:52.752Z,101825.81
2023-01-26T11:38:09.778Z,101827.19
2023-01-26T11:40:44.882Z,101822.11
2023-01-26T11:43:50.379Z,101820.78
2023-01-26T11:46:38.942Z,101817.14
2023-01-26T11:49:34.080Z,101816.35
2023-01-26T11:52:39.559Z,101816.14
2023-01-26T11:55:26.750Z,101817.46
2023-01-26T11:58:01.854Z,101813.45
2023-01-26T12:00:42.018Z,101811.33
2023-01-26T12:03:28.281Z,101810.02
2023-01-26T12:06:03.093Z,101808.89
2023-01-26T12:09:11.986Z,101806.46
2023-01-26T12:11:49.221Z,101808.70
2023-01-26T12:14:45.283Z,101809.94
2023-01-26T12:17:29.055Z,101805.73
2023-01-26T12:20:04.908Z,101812.06
2023-01-26T12:22:42.030Z,101812.48
2023-01-26T12:25:37.638Z,101810.73
2023-01-26T12:28:20.293Z,101814.47
2023-01-26T12:31:01.393Z,101812.77
2023-01-26T12:33:34.330Z,101811.13
2023-01-26T12:36:28.008Z,101814.33
2023-01-26T12:39:00.888Z,101814.47
2023-01-26T12:41:56.381Z,101811.65
2023-01-26T12:44:37.211Z,101805.11
2023-01-26T12:47:27.347Z,101804.35
2023-01-26T12:50:44.106Z,101804.90
2023-01-26T12:53:30.407Z,101796.16
2023-01-26T12:56:05.002Z,101793.58
2023-01-26T12:58:35.879Z,101791.62
2023-01-26T13:01:08.984Z,101787.00
2023-01-26T13:03:44.804Z,101784.55
2023-01-26T13:06:13.459Z,101781.65
2023-01-26T13:08:53.793Z,101782.60
2023-01-26T13:11:52.708Z,101778.33
2023-01-26T13:14:24.237Z,101777.05
2023-01-26T13:16:52.795Z,101772.75
2023-01-26T13:19:43.506Z,101772.52
2023-01-26T13:22:24.379Z,101774.59
2023-01-26T13:24:56.873Z,101776.80
2023-01-26T13:27:41.342Z,101777.58
2023-01-26T13:30:53.877Z,101776.05
2023-01-26T13:33:26.232Z,101778.34
2023-01-26T13:35:54.916Z,101779.27
2023-01-26T13:38:37.527Z,101779.71
2023-01-26T13:41:24.344Z,101780.77
2023-01-26T13:44:10.723Z,101777.58
2023-01-26T13:46:41.081Z,101776.83
2023-01-26T13:49:42.572Z,101781.05
2023-01-26T13:52:28.336Z,101777.80
2023-01-26T13:55:02.294Z,101776.48
2023-01-26T13:57:31.780Z,101778.61
2023-01-26T14:00:01.311Z,101773.60
2023-01-26T14:02:36.332Z,101772.22
2023-01-26T14:05:05.088Z,101769.80
2023-01-26T14:07:43.874Z,101766.52
2023-01-26T14:10:19.624Z,101768.89
2023-01-26T14:12:52.799Z,101770.65
2023-01-26T14:15:29.447Z,101769.58
2023-01-26T14:18:03.029Z,101767.44
2023-01-26T14:20:35.285Z,101769.20
2023-01-26T14:23:07.981Z,101767.08
2023-01-26T14:25:37.613Z,101772.23
2023-01-26T14:28:05.962Z,101769.70
2023-01-26T14:30:35.623Z,101764.55
2023-01-26T14:33:04.588Z,101767.57
2023-01-26T14:35:33.100Z,101763.85
2023-01-26T14:38:13.103Z,101763.55
2023-01-26T14:40:46.580Z,101763.58
2023-01-26T14:43:15.028Z,101765.51
2023-01-26T14:45:56.294Z,101765.96
2023-01-26T14:48:28.377Z,101764.66
2023-01-26T14:50:57.578Z,101758.52
2023-01-26T14:53:26.122Z,101758.80
2023-01-26T14:55:55.156Z,101756.71
2023-01-26T14:58:33.058Z,101750.85
2023-01-26T15:01:01.960Z,101753.53
2023-01-26T15:03:34.484Z,101757.08
2023-01-26T15:06:15.598Z,101759.47
2023-01-26T15:08:59.901Z,101751.13
2023-01-26T15:11:57.565Z,101752.58
2023-01-26T15:14:39.184Z,101750.88
2023-01-26T15:17:07.888Z,101749.73
2023-01-26T15:19:41.769Z,101748.55
2023-01-26T15:22:18.588Z,101747.94
2023-01-26T15:25:02.792Z,101747.58
2023-01-26T15:27:33.304Z,101746.06
2023-01-26T15:30:02.361Z,101744.89
2023-01-26T15:32:33.521Z,101745.26
2023-01-26T15:35:25.972Z,101737.58
2023-01-26T15:38:01.780Z,101737.95
2023-01-26T15:40:47.719Z,101735.77
2023-01-26T15:43:28.718Z,101737.26
2023-01-26T15:46:01.480Z,101741.86
2023-01-26T15:48:32.007Z,101747.31
2023-01-26T15:51:00.489Z,101748.27
2023-01-26T15:53:29.263Z,101750.41
2023-01-26T15:56:01.022Z,101748.41
2023-01-26T15:58:31.862Z,101752.94
2023-01-26T16:01:00.726Z,101755.93
2023-01-26T16:03:29.673Z,101753.15
2023-01-26T16:05:58.140Z,101757.46
2023-01-26T16:08:26.647Z,101754.20
2023-01-26T16:10:57.034Z,101752.17
2023-01-26T16:13:25.779Z,101755.51
2023-01-26T16:15:54.438Z,101755.94
2023-01-26T16:18:22.894Z,101751.21
2023-01-26T16:20:51.161Z,101754.08
2023-01-26T16:23:20.712Z,101752.11
2023-01-26T16:25:51.471Z,101754.40
2023-01-26T16:28:20.083Z,101752.77
2023-01-26T16:30:50.388Z,101755.70
2023-01-26T16:33:22.029Z,101750.16
2023-01-26T16:35:50.294Z,101744.68
2023-01-26T16:38:19.365Z,101743.60
2023-01-26T16:40:48.291Z,101750.02
2023-01-26T16:43:23.796Z,101751.92
2023-01-26T16:45:53.003Z,101754.27
2023-01-26T16:48:21.997Z,101751.77
2023-01-26T16:50:52.232Z,101755.30
2023-01-26T16:53:29.199Z,101756.05
2023-01-26T16:55:57.599Z,101757.42
2023-01-26T16:58:26.828Z,101758.84
2023-01-26T17:00:55.631Z,101751.55
2023-01-26T17:03:24.296Z,101752.42
2023-01-26T17:05:55.147Z,101756.66
2023-01-26T17:08:23.686Z,101753.52
2023-01-26T17:11:02.078Z,101755.01
2023-01-26T17:13:32.902Z,101750.13
2023-01-26T17:16:01.751Z,101744.11
2023-01-26T17:18:33.676Z,101744.98
2023-01-26T17:21:03.859Z,101737.30
2023-01-26T17:23:34.611Z,101742.29
2023-01-26T17:26:03.934Z,101738.20
2023-01-26T17:28:35.081Z,101740.40
2023-01-26T17:31:11.004Z,101736.80
2023-01-26T17:33:40.240Z,101743.43
2023-01-26T17:36:09.183Z,101744.05
2023-01-26T17:38:39.209Z,101745.63
2023-01-26T17:41:08.242Z,101742.65
2023-01-26T17:43:38.467Z,101747.89
2023-01-26T17:46:14.020Z,101743.05
2023-01-26T17:48:45.303Z,101744.75
2023-01-26T17:51:19.083Z,101740.20
2023-01-26T17:53:49.814Z,101736.66
2023-01-26T17:56:20.077Z,101735.67
2023-01-26T17:58:53.498Z,101735.97
2023-01-26T18:01:23.218Z,101732.85
2023-01-26T18:03:53.770Z,101733.66
2023-01-26T18:06:22.474Z,101735.64
2023-01-26T18:08:52.103Z,101733.35
2023-01-26T18:11:20.678Z,101736.72
2023-01-26T18:13:49.478Z,101740.95
2023-01-26T18:16:20.094Z,101736.06
2023-01-26T18:18:48.956Z,101737.00
2023-01-26T18:21:22.836Z,101731.82
2023-01-26T18:23:52.749Z,101731.04
2023-01-26T18:26:24.972Z,101729.49
2023-01-26T18:28:53.428Z,101725.93
2023-01-26T18:31:27.262Z,101723.76
2023-01-26T18:33:59.308Z,101718.79
2023-01-26T18:36:27.999Z,101723.30
2023-01-26T18:39:01.512Z,101726.40
2023-01-26T18:41:31.336Z,101725.10
2023-01-26T18:44:00.510Z,101722.18
2023-01-26T18:46:31.170Z,101722.59
2023-01-26T18:49:01.153Z,101723.93
2023-01-26T18:51:31.157Z,101722.17
2023-01-26T18:53:59.581Z,101722.02
2023-01-26T18:56:28.839Z,101718.41
2023-01-26T18:58:57.770Z,101720.84
2023-01-26T19:01:26.470Z,101720.52
2023-01-26T19:03:55.913Z,101712.69
2023-01-26T19:06:25.798Z,101707.33
2023-01-26T19:08:59.502Z,101706.59
2023-01-26T19:11:31.286Z,101710.53
2023-01-26T19:13:59.985Z,101713.71
2023-01-26T19:16:29.262Z,101709.70
2023-01-26T19:18:57.982Z,101703.51
2023-01-26T19:21:28.216Z,101698.80
2023-01-26T19:23:58.812Z,101698.09
2023-01-26T19:26:30.965Z,101701.73
2023-01-26T19:29:01.989Z,101702.75
2023-01-26T19:31:32.337Z,101702.17
2023-01-26T19:34:02.754Z,101698.17
2023-01-26T19:36:32.799Z,101699.41
2023-01-26T19:39:04.803Z,101700.13
2023-01-26T19:41:34.843Z,101701.02
2023-01-26T19:44:03.335Z,101699.38
2023-01-26T19:46:32.154Z,101695.30
2023-01-26T19:49:00.687Z,101694.49
2023-01-26T19:51:30.126Z,101696.70
2023-01-26T19:54:02.390Z,101691.73
2023-01-26T19:56:32.600Z,101685.66
2023-01-26T19:59:04.028Z,101680.29
2023-01-26T20:01:33.651Z,101679.66
2023-01-26T20:04:04.271Z,101676.03
2023-01-26T20:06:36.870Z,101674.02
2023-01-26T20:09:06.313Z,101666.06
2023-01-26T20:11:35.215Z,101665.05
2023-01-26T20:14:09.054Z,101669.59
2023-01-26T20:16:38.186Z,101665.08
2023-01-26T20:19:07.079Z,101664.45
2023-01-26T20:21:35.827Z,101664.64
2023-01-26T20:24:06.390Z,101663.88
2023-01-26T20:26:36.405Z,101665.65
2023-01-26T20:29:05.237Z,101662.99
2023-01-26T20:31:34.266Z,101661.00
2023-01-26T20:34:04.524Z,101662.78
2023-01-26T20:36:33.975Z,101662.64
2023-01-26T20:39:02.816Z,101656.70
2023-01-26T20:41:33.617Z,101657.64
2023-01-26T20:44:06.978Z,101659.48
2023-01-26T20:46:37.927Z,101659.55
2023-01-26T20:49:08.892Z,101659.52
2023-01-26T20:51:40.729Z,101655.29
2023-01-26T20:54:12.266Z,101658.98
2023-01-26T20:56:41.185Z,101658.65
2023-01-26T20:59:10.839Z,101659.13
2023-01-26T21:01:39.464Z,101655.36
2023-01-26T21:04:07.696Z,101650.09
2023-01-26T21:06:39.369Z,101644.98
2023-01-26T21:09:12.677Z,101649.09
2023-01-26T21:11:41.759Z,101651.61
2023-01-26T21:14:11.714Z,101652.03
2023-01-26T21:16:41.673Z,101653.32
2023-01-26T21:19:10.168Z,101650.77
2023-01-26T21:21:38.581Z,101646.78
2023-01-26T21:24:07.378Z,101644.20
2023-01-26T21:26:35.820Z,101644.29
2023-01-26T21:29:07.832Z,101643.15
2023-01-26T21:31:36.461Z,101639.26
2023-01-26T21:34:05.221Z,101640.40
2023-01-26T21:36:34.926Z,101641.30
2023-01-26T21:39:03.810Z,101637.67
2023-01-26T21:41:52.403Z,101633.44
2023-01-26T21:44:58.947Z,101630.73
2023-01-26T21:47:27.651Z,101622.63
2023-01-26T21:49:58.820Z,101621.91
2023-01-26T21:52:45.756Z,101621.25
2023-01-26T21:55:14.505Z,101622.09
2023-01-26T21:58:01.352Z,101621.36
2023-01-26T22:00:31.698Z,101615.34
2023-01-26T22:03:01.147Z,101616.34
2023-01-26T22:05:29.739Z,101611.57
2023-01-26T22:07:58.810Z,101610.86
2023-01-26T22:10:29.083Z,101605.07
2023-01-26T22:12:57.333Z,101601.76
2023-01-26T22:15:26.200Z,101604.42
2023-01-26T22:17:58.469Z,101602.84
2023-01-26T22:20:27.296Z,101598.61
2023-01-26T22:22:55.707Z,101593.42
2023-01-26T22:25:24.914Z,101594.57
2023-01-26T22:27:53.343Z,101593.36
2023-01-26T22:30:21.756Z,101593.38
2023-01-26T22:32:50.518Z,101599.17
2023-01-26T22:35:19.274Z,101605.48
2023-01-26T22:37:47.942Z,101603.10
2023-01-26T22:40:16.750Z,101609.88
2023-01-26T22:42:45.190Z,101602.63
2023-01-26T22:45:14.246Z,101603.90
2023-01-26T22:47:42.699Z,101603.14
2023-01-26T22:50:11.909Z,101604.83
2023-01-26T22:52:41.653Z,101605.27
2023-01-26T22:55:10.322Z,101600.01
2023-01-26T22:57:38.884Z,101602.18
2023-01-26T23:00:08.294Z,101603.08
2023-01-26T23:02:37.153Z,101608.60
2023-01-26T23:05:06.249Z,101607.45
2023-01-26T23:07:34.752Z,101598.76
2023-01-26T23:10:03.528Z,101598.61
2023-01-26T23:12:31.963Z,101592.80
2023-01-26T23:15:00.890Z,101589.05
2023-01-26T23:17:29.823Z,101584.91
2023-01-26T23:19:59.307Z,101577.48
2023-01-26T23:22:27.660Z,101575.00
2023-01-26T23:25:15.135Z,101578.98
2023-01-26T23:27:43.499Z,101576.02
2023-01-26T23:30:13.094Z,101578.83
2023-01-26T23:32:41.780Z,101577.81
2023-01-26T23:35:10.102Z,101579.50
2023-01-26T23:37:38.629Z,101582.65
2023-01-26T23:40:07.832Z,101581.11
2023-01-26T23:42:55.823Z,101578.11
2023-01-26T23:45:24.854Z,101572.85
2023-01-26T23:47:53.447Z,101572.35
2023-01-26T23:50:21.979Z,101569.90
2023-01-26T23:52:52.771Z,101573.23
2023-01-26T23:55:21.215Z,101578.92
2023-01-26T23:57:50.200Z,101578.89
